sensor_id;sensor_type;location;lat;lon;timestamp;temperature;humidity
17284;DHT22;8760;52.248;20.952;2024-02-04T00:02:23;6.90;99.90
17284;DHT22;8760;52.248;20.952;2024-02-04T00:04:50;7.00;99.90
17284;DHT22;8760;52.248;20.952;2024-02-04T00:07:19;7.00;99.90
17284;DHT22;8760;52.248;20.952;2024-02-04T00:09:47;7.00;99.90
17284;DHT22;8760;52.248;20.952;2024-02-04T00:12:14;6.90;99.90
17284;DHT22;8760;52.248;20.952;2024-02-04T00:14:40;6.90;99.90
17284;DHT22;8760;52.248;20.952;2024-02-04T00:17:07;6.90;99.90
17284;DHT22;8760;52.248;20.952;2024-02-04T00:19:34;6.90;99.90
17284;DHT22;8760;52.248;20.952;2024-02-04T00:22:01;6.90;99.90
17284;DHT22;8760;52.248;20.952;2024-02-04T00:24:29;6.90;99.90
17284;DHT22;8760;52.248;20.952;2024-02-04T00:26:56;6.80;99.90
17284;DHT22;8760;52.248;20.952;2024-02-04T00:29:23;6.80;99.90
17284;DHT22;8760;52.248;20.952;2024-02-04T00:31:50;6.70;99.90
17284;DHT22;8760;52.248;20.952;2024-02-04T00:34:17;6.80;99.90
17284;DHT22;8760;52.248;20.952;2024-02-04T00:36:44;6.80;99.90
17284;DHT22;8760;52.248;20.952;2024-02-04T00:39:11;6.80;99.90
17284;DHT22;8760;52.248;20.952;2024-02-04T00:41:39;6.80;99.90
17284;DHT22;8760;52.248;20.952;2024-02-04T00:44:06;6.80;99.90
17284;DHT22;8760;52.248;20.952;2024-02-04T00:46:32;6.80;99.90
17284;DHT22;8760;52.248;20.952;2024-02-04T00:48:59;6.80;99.90
17284;DHT22;8760;52.248;20.952;2024-02-04T00:51:26;6.70;99.90
17284;DHT22;8760;52.248;20.952;2024-02-04T00:53:53;6.70;99.90
17284;DHT22;8760;52.248;20.952;2024-02-04T00:56:20;6.70;99.90
17284;DHT22;8760;52.248;20.952;2024-02-04T00:58:48;6.60;99.90
17284;DHT22;8760;52.248;20.952;2024-02-04T01:01:15;6.60;99.90
17284;DHT22;8760;52.248;20.952;2024-02-04T01:03:42;6.60;99.90
17284;DHT22;8760;52.248;20.952;2024-02-04T01:06:08;6.50;99.90
17284;DHT22;8760;52.248;20.952;2024-02-04T01:08:35;6.60;99.90
17284;DHT22;8760;52.248;20.952;2024-02-04T01:11:03;6.50;99.90
17284;DHT22;8760;52.248;20.952;2024-02-04T01:13:30;6.50;99.90
17284;DHT22;8760;52.248;20.952;2024-02-04T01:15:58;6.50;99.90
17284;DHT22;8760;52.248;20.952;2024-02-04T01:18:25;6.50;99.90
17284;DHT22;8760;52.248;20.952;2024-02-04T01:20:52;6.50;99.90
17284;DHT22;8760;52.248;20.952;2024-02-04T01:23:19;6.50;99.90
17284;DHT22;8760;52.248;20.952;2024-02-04T01:25:46;6.50;99.90
17284;DHT22;8760;52.248;20.952;2024-02-04T01:28:13;6.50;99.90
17284;DHT22;8760;52.248;20.952;2024-02-04T01:30:40;6.50;99.90
17284;DHT22;8760;52.248;20.952;2024-02-04T01:33:08;6.50;99.90
17284;DHT22;8760;52.248;20.952;2024-02-04T01:35:35;6.50;99.90
17284;DHT22;8760;52.248;20.952;2024-02-04T01:38:02;6.60;99.90
17284;DHT22;8760;52.248;20.952;2024-02-04T01:40:28;6.60;99.90
17284;DHT22;8760;52.248;20.952;2024-02-04T01:42:56;6.60;99.90
17284;DHT22;8760;52.248;20.952;2024-02-04T01:45:22;6.60;99.90
17284;DHT22;8760;52.248;20.952;2024-02-04T01:47:50;6.60;99.90
17284;DHT22;8760;52.248;20.952;2024-02-04T01:50:19;6.60;99.90
17284;DHT22;8760;52.248;20.952;2024-02-04T01:52:47;6.60;99.90
17284;DHT22;8760;52.248;20.952;2024-02-04T01:55:14;6.50;99.90
17284;DHT22;8760;52.248;20.952;2024-02-04T01:57:41;6.50;99.90
17284;DHT22;8760;52.248;20.952;2024-02-04T02:00:09;6.50;99.90
17284;DHT22;8760;52.248;20.952;2024-02-04T02:02:40;6.40;99.90
17284;DHT22;8760;52.248;20.952;2024-02-04T02:05:07;6.40;99.90
17284;DHT22;8760;52.248;20.952;2024-02-04T02:07:36;6.40;99.90
17284;DHT22;8760;52.248;20.952;2024-02-04T02:10:03;6.30;99.90
17284;DHT22;8760;52.248;20.952;2024-02-04T02:12:35;6.30;99.90
17284;DHT22;8760;52.248;20.952;2024-02-04T02:15:09;6.30;99.90
17284;DHT22;8760;52.248;20.952;2024-02-04T02:17:43;6.30;99.90
17284;DHT22;8760;52.248;20.952;2024-02-04T02:20:18;6.30;99.90
17284;DHT22;8760;52.248;20.952;2024-02-04T02:22:50;6.30;99.90
17284;DHT22;8760;52.248;20.952;2024-02-04T02:25:20;6.30;99.90
17284;DHT22;8760;52.248;20.952;2024-02-04T02:27:48;6.30;99.90
17284;DHT22;8760;52.248;20.952;2024-02-04T02:30:16;6.30;99.90
17284;DHT22;8760;52.248;20.952;2024-02-04T02:32:44;6.30;99.90
17284;DHT22;8760;52.248;20.952;2024-02-04T02:35:13;6.30;99.90
17284;DHT22;8760;52.248;20.952;2024-02-04T02:37:44;6.30;99.90
17284;DHT22;8760;52.248;20.952;2024-02-04T02:40:16;6.30;99.90
17284;DHT22;8760;52.248;20.952;2024-02-04T02:42:47;6.40;99.90
17284;DHT22;8760;52.248;20.952;2024-02-04T02:45:16;6.40;99.90
17284;DHT22;8760;52.248;20.952;2024-02-04T02:47:44;6.40;99.90
17284;DHT22;8760;52.248;20.952;2024-02-04T02:50:13;6.40;99.90
17284;DHT22;8760;52.248;20.952;2024-02-04T02:52:40;6.40;99.90
17284;DHT22;8760;52.248;20.952;2024-02-04T02:55:07;6.50;99.90
17284;DHT22;8760;52.248;20.952;2024-02-04T02:57:34;6.60;99.90
17284;DHT22;8760;52.248;20.952;2024-02-04T03:00:02;6.70;99.90
17284;DHT22;8760;52.248;20.952;2024-02-04T03:02:31;6.70;99.90
17284;DHT22;8760;52.248;20.952;2024-02-04T03:04:58;6.70;99.90
17284;DHT22;8760;52.248;20.952;2024-02-04T03:07:25;6.70;99.90
17284;DHT22;8760;52.248;20.952;2024-02-04T03:09:53;6.70;99.90
17284;DHT22;8760;52.248;20.952;2024-02-04T03:12:20;6.70;99.90
17284;DHT22;8760;52.248;20.952;2024-02-04T03:14:47;6.70;99.90
17284;DHT22;8760;52.248;20.952;2024-02-04T03:17:15;6.70;99.90
17284;DHT22;8760;52.248;20.952;2024-02-04T03:19:46;6.70;99.90
17284;DHT22;8760;52.248;20.952;2024-02-04T03:22:13;6.70;99.90
17284;DHT22;8760;52.248;20.952;2024-02-04T03:24:40;6.70;99.90
17284;DHT22;8760;52.248;20.952;2024-02-04T03:27:07;6.70;99.90
17284;DHT22;8760;52.248;20.952;2024-02-04T03:29:33;6.70;99.90
17284;DHT22;8760;52.248;20.952;2024-02-04T03:32:01;6.70;99.90
17284;DHT22;8760;52.248;20.952;2024-02-04T03:34:29;6.70;99.90
17284;DHT22;8760;52.248;20.952;2024-02-04T03:36:56;6.70;99.90
17284;DHT22;8760;52.248;20.952;2024-02-04T03:39:22;6.70;99.90
17284;DHT22;8760;52.248;20.952;2024-02-04T03:41:49;6.80;99.90
17284;DHT22;8760;52.248;20.952;2024-02-04T03:44:16;6.80;99.90
17284;DHT22;8760;52.248;20.952;2024-02-04T03:46:43;6.80;99.90
17284;DHT22;8760;52.248;20.952;2024-02-04T03:49:10;6.90;99.90
17284;DHT22;8760;52.248;20.952;2024-02-04T03:51:38;6.80;99.90
17284;DHT22;8760;52.248;20.952;2024-02-04T03:54:05;6.80;99.90
17284;DHT22;8760;52.248;20.952;2024-02-04T03:56:32;6.80;99.90
17284;DHT22;8760;52.248;20.952;2024-02-04T03:58:59;6.80;99.90
17284;DHT22;8760;52.248;20.952;2024-02-04T04:01:26;6.80;99.90
17284;DHT22;8760;52.248;20.952;2024-02-04T04:03:52;6.80;99.90
17284;DHT22;8760;52.248;20.952;2024-02-04T04:06:19;6.90;99.90
17284;DHT22;8760;52.248;20.952;2024-02-04T04:08:47;6.90;99.90
17284;DHT22;8760;52.248;20.952;2024-02-04T04:11:14;6.90;99.90
17284;DHT22;8760;52.248;20.952;2024-02-04T04:13:41;6.90;99.90
17284;DHT22;8760;52.248;20.952;2024-02-04T04:16:08;6.80;99.90
17284;DHT22;8760;52.248;20.952;2024-02-04T04:18:35;6.80;99.90
17284;DHT22;8760;52.248;20.952;2024-02-04T04:21:08;6.80;99.90
17284;DHT22;8760;52.248;20.952;2024-02-04T04:23:34;6.80;99.90
17284;DHT22;8760;52.248;20.952;2024-02-04T04:26:03;6.80;99.90
17284;DHT22;8760;52.248;20.952;2024-02-04T04:28:29;6.80;99.90
17284;DHT22;8760;52.248;20.952;2024-02-04T04:30:56;6.80;99.90
17284;DHT22;8760;52.248;20.952;2024-02-04T04:33:23;6.80;99.90
17284;DHT22;8760;52.248;20.952;2024-02-04T04:35:50;6.80;99.90
17284;DHT22;8760;52.248;20.952;2024-02-04T04:38:17;6.80;99.90
17284;DHT22;8760;52.248;20.952;2024-02-04T04:40:43;6.80;99.90
17284;DHT22;8760;52.248;20.952;2024-02-04T04:43:12;6.70;99.90
17284;DHT22;8760;52.248;20.952;2024-02-04T04:45:39;6.70;99.90
17284;DHT22;8760;52.248;20.952;2024-02-04T04:48:06;6.50;99.90
17284;DHT22;8760;52.248;20.952;2024-02-04T04:50:34;6.40;99.90
17284;DHT22;8760;52.248;20.952;2024-02-04T04:53:01;6.30;99.90
17284;DHT22;8760;52.248;20.952;2024-02-04T04:55:28;6.20;99.90
17284;DHT22;8760;52.248;20.952;2024-02-04T04:57:55;6.20;99.90
17284;DHT22;8760;52.248;20.952;2024-02-04T05:00:23;6.20;99.90
17284;DHT22;8760;52.248;20.952;2024-02-04T05:02:50;6.20;99.90
17284;DHT22;8760;52.248;20.952;2024-02-04T05:05:16;6.10;99.90
17284;DHT22;8760;52.248;20.952;2024-02-04T05:07:44;6.10;99.90
17284;DHT22;8760;52.248;20.952;2024-02-04T05:10:12;6.10;99.90
17284;DHT22;8760;52.248;20.952;2024-02-04T05:12:39;6.10;99.90
17284;DHT22;8760;52.248;20.952;2024-02-04T05:15:06;6.00;99.90
17284;DHT22;8760;52.248;20.952;2024-02-04T05:17:35;6.00;99.90
17284;DHT22;8760;52.248;20.952;2024-02-04T05:20:02;6.00;99.90
17284;DHT22;8760;52.248;20.952;2024-02-04T05:22:29;5.90;99.90
17284;DHT22;8760;52.248;20.952;2024-02-04T05:24:56;5.80;99.90
17284;DHT22;8760;52.248;20.952;2024-02-04T05:27:23;5.80;99.90
17284;DHT22;8760;52.248;20.952;2024-02-04T05:29:50;5.70;99.90
17284;DHT22;8760;52.248;20.952;2024-02-04T05:32:17;5.60;99.90
17284;DHT22;8760;52.248;20.952;2024-02-04T05:34:45;5.60;99.90
17284;DHT22;8760;52.248;20.952;2024-02-04T05:37:12;5.70;99.90
17284;DHT22;8760;52.248;20.952;2024-02-04T05:39:38;5.70;99.90
17284;DHT22;8760;52.248;20.952;2024-02-04T05:42:05;5.70;99.90
17284;DHT22;8760;52.248;20.952;2024-02-04T05:44:32;5.70;99.90
17284;DHT22;8760;52.248;20.952;2024-02-04T05:46:59;5.70;99.90
17284;DHT22;8760;52.248;20.952;2024-02-04T05:49:26;5.70;99.90
17284;DHT22;8760;52.248;20.952;2024-02-04T05:51:54;5.70;99.90
17284;DHT22;8760;52.248;20.952;2024-02-04T05:54:21;5.70;99.90
17284;DHT22;8760;52.248;20.952;2024-02-04T05:56:48;5.70;99.90
17284;DHT22;8760;52.248;20.952;2024-02-04T05:59:14;5.70;99.90
17284;DHT22;8760;52.248;20.952;2024-02-04T06:01:42;5.70;99.90
17284;DHT22;8760;52.248;20.952;2024-02-04T06:04:10;5.70;99.90
17284;DHT22;8760;52.248;20.952;2024-02-04T06:06:37;5.70;99.90
17284;DHT22;8760;52.248;20.952;2024-02-04T06:09:05;5.60;99.90
17284;DHT22;8760;52.248;20.952;2024-02-04T06:11:34;5.60;99.90
17284;DHT22;8760;52.248;20.952;2024-02-04T06:14:00;5.60;99.90
17284;DHT22;8760;52.248;20.952;2024-02-04T06:16:27;5.60;99.90
17284;DHT22;8760;52.248;20.952;2024-02-04T06:18:54;5.60;99.90
17284;DHT22;8760;52.248;20.952;2024-02-04T06:21:23;5.60;99.90
17284;DHT22;8760;52.248;20.952;2024-02-04T06:23:50;5.60;99.90
17284;DHT22;8760;52.248;20.952;2024-02-04T06:26:18;5.60;99.90
17284;DHT22;8760;52.248;20.952;2024-02-04T06:28:45;5.60;99.90
17284;DHT22;8760;52.248;20.952;2024-02-04T06:31:14;5.50;99.90
17284;DHT22;8760;52.248;20.952;2024-02-04T06:33:41;5.50;99.90
17284;DHT22;8760;52.248;20.952;2024-02-04T06:36:09;5.40;99.90
17284;DHT22;8760;52.248;20.952;2024-02-04T06:38:36;5.40;99.90
17284;DHT22;8760;52.248;20.952;2024-02-04T06:41:03;5.40;99.90
17284;DHT22;8760;52.248;20.952;2024-02-04T06:43:31;5.30;99.90
17284;DHT22;8760;52.248;20.952;2024-02-04T06:45:58;5.30;99.90
17284;DHT22;8760;52.248;20.952;2024-02-04T06:48:25;5.30;99.90
17284;DHT22;8760;52.248;20.952;2024-02-04T06:50:51;5.30;99.90
17284;DHT22;8760;52.248;20.952;2024-02-04T06:53:18;5.30;99.90
17284;DHT22;8760;52.248;20.952;2024-02-04T06:55:45;5.30;99.90
17284;DHT22;8760;52.248;20.952;2024-02-04T06:58:12;5.30;99.90
17284;DHT22;8760;52.248;20.952;2024-02-04T07:00:40;5.40;99.90
17284;DHT22;8760;52.248;20.952;2024-02-04T07:03:07;5.40;99.90
17284;DHT22;8760;52.248;20.952;2024-02-04T07:05:35;5.30;99.90
17284;DHT22;8760;52.248;20.952;2024-02-04T07:08:02;5.30;99.90
17284;DHT22;8760;52.248;20.952;2024-02-04T07:10:29;5.30;99.90
17284;DHT22;8760;52.248;20.952;2024-02-04T07:12:56;5.40;99.90
17284;DHT22;8760;52.248;20.952;2024-02-04T07:15:23;5.30;99.90
17284;DHT22;8760;52.248;20.952;2024-02-04T07:17:51;5.40;99.90
17284;DHT22;8760;52.248;20.952;2024-02-04T07:20:18;5.40;99.90
17284;DHT22;8760;52.248;20.952;2024-02-04T07:22:45;5.40;99.90
17284;DHT22;8760;52.248;20.952;2024-02-04T07:25:12;5.40;99.90
17284;DHT22;8760;52.248;20.952;2024-02-04T07:27:39;5.40;99.90
17284;DHT22;8760;52.248;20.952;2024-02-04T07:30:07;5.40;99.90
17284;DHT22;8760;52.248;20.952;2024-02-04T07:32:34;5.50;99.90
17284;DHT22;8760;52.248;20.952;2024-02-04T07:35:04;5.50;99.90
17284;DHT22;8760;52.248;20.952;2024-02-04T07:37:31;5.50;99.90
17284;DHT22;8760;52.248;20.952;2024-02-04T07:39:59;5.60;99.90
17284;DHT22;8760;52.248;20.952;2024-02-04T07:42:26;5.60;99.90
17284;DHT22;8760;52.248;20.952;2024-02-04T07:44:53;5.60;99.90
17284;DHT22;8760;52.248;20.952;2024-02-04T07:47:20;5.70;99.90
17284;DHT22;8760;52.248;20.952;2024-02-04T07:49:47;5.70;99.90
17284;DHT22;8760;52.248;20.952;2024-02-04T07:52:15;5.70;99.90
17284;DHT22;8760;52.248;20.952;2024-02-04T07:54:42;5.60;99.90
17284;DHT22;8760;52.248;20.952;2024-02-04T07:57:09;5.60;99.90
17284;DHT22;8760;52.248;20.952;2024-02-04T07:59:37;5.60;99.90
17284;DHT22;8760;52.248;20.952;2024-02-04T08:02:04;5.60;99.90
17284;DHT22;8760;52.248;20.952;2024-02-04T08:04:33;5.50;99.90
17284;DHT22;8760;52.248;20.952;2024-02-04T08:07:00;5.60;99.90
17284;DHT22;8760;52.248;20.952;2024-02-04T08:09:28;5.50;99.90
17284;DHT22;8760;52.248;20.952;2024-02-04T08:11:55;5.50;99.90
17284;DHT22;8760;52.248;20.952;2024-02-04T08:14:22;5.60;99.90
17284;DHT22;8760;52.248;20.952;2024-02-04T08:16:48;5.60;99.90
17284;DHT22;8760;52.248;20.952;2024-02-04T08:19:16;5.60;99.90
17284;DHT22;8760;52.248;20.952;2024-02-04T08:21:43;5.60;99.90
17284;DHT22;8760;52.248;20.952;2024-02-04T08:24:10;5.60;99.90
17284;DHT22;8760;52.248;20.952;2024-02-04T08:26:38;5.60;99.90
17284;DHT22;8760;52.248;20.952;2024-02-04T08:29:05;5.60;99.90
17284;DHT22;8760;52.248;20.952;2024-02-04T08:31:32;5.70;99.90
17284;DHT22;8760;52.248;20.952;2024-02-04T08:33:59;5.70;99.90
17284;DHT22;8760;52.248;20.952;2024-02-04T08:36:27;5.70;99.90
17284;DHT22;8760;52.248;20.952;2024-02-04T08:38:53;5.60;99.90
17284;DHT22;8760;52.248;20.952;2024-02-04T08:41:20;5.60;99.90
17284;DHT22;8760;52.248;20.952;2024-02-04T08:43:48;5.60;99.90
17284;DHT22;8760;52.248;20.952;2024-02-04T08:46:15;5.70;99.90
17284;DHT22;8760;52.248;20.952;2024-02-04T08:48:42;5.60;99.90
17284;DHT22;8760;52.248;20.952;2024-02-04T08:51:11;5.70;99.90
17284;DHT22;8760;52.248;20.952;2024-02-04T08:53:38;5.70;99.90
17284;DHT22;8760;52.248;20.952;2024-02-04T08:56:06;5.70;99.90
17284;DHT22;8760;52.248;20.952;2024-02-04T08:58:33;5.70;99.90
17284;DHT22;8760;52.248;20.952;2024-02-04T09:01:04;5.70;99.90
17284;DHT22;8760;52.248;20.952;2024-02-04T09:03:30;5.70;99.90
17284;DHT22;8760;52.248;20.952;2024-02-04T09:05:58;5.70;99.90
17284;DHT22;8760;52.248;20.952;2024-02-04T09:08:25;5.80;99.90
17284;DHT22;8760;52.248;20.952;2024-02-04T09:10:52;5.80;99.90
17284;DHT22;8760;52.248;20.952;2024-02-04T09:13:19;5.80;99.90
17284;DHT22;8760;52.248;20.952;2024-02-04T09:15:46;5.70;99.90
17284;DHT22;8760;52.248;20.952;2024-02-04T09:18:14;5.80;99.90
17284;DHT22;8760;52.248;20.952;2024-02-04T09:20:41;5.80;99.90
17284;DHT22;8760;52.248;20.952;2024-02-04T09:23:08;5.80;99.90
17284;DHT22;8760;52.248;20.952;2024-02-04T09:25:35;5.80;99.90
17284;DHT22;8760;52.248;20.952;2024-02-04T09:28:02;5.90;99.90
17284;DHT22;8760;52.248;20.952;2024-02-04T09:30:29;5.90;99.90
17284;DHT22;8760;52.248;20.952;2024-02-04T09:32:56;5.90;99.90
17284;DHT22;8760;52.248;20.952;2024-02-04T09:35:25;5.90;99.90
17284;DHT22;8760;52.248;20.952;2024-02-04T09:37:51;5.90;99.90
17284;DHT22;8760;52.248;20.952;2024-02-04T09:40:18;6.00;99.90
17284;DHT22;8760;52.248;20.952;2024-02-04T09:42:45;5.90;99.90
17284;DHT22;8760;52.248;20.952;2024-02-04T09:45:14;5.90;99.90
17284;DHT22;8760;52.248;20.952;2024-02-04T09:47:45;5.90;99.90
17284;DHT22;8760;52.248;20.952;2024-02-04T09:50:12;5.90;99.90
17284;DHT22;8760;52.248;20.952;2024-02-04T09:52:40;5.90;99.90
17284;DHT22;8760;52.248;20.952;2024-02-04T09:55:13;5.90;99.90
17284;DHT22;8760;52.248;20.952;2024-02-04T09:57:41;6.00;99.90
17284;DHT22;8760;52.248;20.952;2024-02-04T10:00:09;6.00;99.90
17284;DHT22;8760;52.248;20.952;2024-02-04T10:02:36;6.00;99.90
17284;DHT22;8760;52.248;20.952;2024-02-04T10:05:04;6.00;99.90
17284;DHT22;8760;52.248;20.952;2024-02-04T10:07:31;5.90;99.90
17284;DHT22;8760;52.248;20.952;2024-02-04T10:09:59;5.90;99.90
17284;DHT22;8760;52.248;20.952;2024-02-04T10:12:26;5.90;99.90
17284;DHT22;8760;52.248;20.952;2024-02-04T10:14:53;5.90;99.90
17284;DHT22;8760;52.248;20.952;2024-02-04T10:17:20;6.00;99.90
17284;DHT22;8760;52.248;20.952;2024-02-04T10:19:47;5.90;99.90
17284;DHT22;8760;52.248;20.952;2024-02-04T10:22:14;5.90;99.90
17284;DHT22;8760;52.248;20.952;2024-02-04T10:24:42;5.90;99.90
17284;DHT22;8760;52.248;20.952;2024-02-04T10:27:11;5.90;99.90
17284;DHT22;8760;52.248;20.952;2024-02-04T10:29:38;6.00;99.90
17284;DHT22;8760;52.248;20.952;2024-02-04T10:32:06;6.00;99.90
17284;DHT22;8760;52.248;20.952;2024-02-04T10:34:36;6.00;99.90
17284;DHT22;8760;52.248;20.952;2024-02-04T10:37:03;6.00;99.90
17284;DHT22;8760;52.248;20.952;2024-02-04T10:39:30;6.10;99.90
17284;DHT22;8760;52.248;20.952;2024-02-04T10:42:02;6.00;99.90
17284;DHT22;8760;52.248;20.952;2024-02-04T10:44:35;6.00;99.90
17284;DHT22;8760;52.248;20.952;2024-02-04T10:47:05;6.00;99.90
17284;DHT22;8760;52.248;20.952;2024-02-04T10:49:34;6.10;99.90
17284;DHT22;8760;52.248;20.952;2024-02-04T10:52:06;6.10;99.90
17284;DHT22;8760;52.248;20.952;2024-02-04T10:54:34;6.10;99.90
17284;DHT22;8760;52.248;20.952;2024-02-04T10:57:05;6.10;99.90
17284;DHT22;8760;52.248;20.952;2024-02-04T10:59:35;6.10;99.90
17284;DHT22;8760;52.248;20.952;2024-02-04T11:02:05;6.10;99.90
17284;DHT22;8760;52.248;20.952;2024-02-04T11:04:33;6.10;99.90
17284;DHT22;8760;52.248;20.952;2024-02-04T11:07:01;6.20;99.90
17284;DHT22;8760;52.248;20.952;2024-02-04T11:09:29;6.10;99.90
17284;DHT22;8760;52.248;20.952;2024-02-04T11:11:58;6.10;99.90
17284;DHT22;8760;52.248;20.952;2024-02-04T11:14:27;6.10;99.90
17284;DHT22;8760;52.248;20.952;2024-02-04T11:20:02;6.10;99.90
17284;DHT22;8760;52.248;20.952;2024-02-04T11:22:47;6.10;99.90
17284;DHT22;8760;52.248;20.952;2024-02-04T11:28:21;6.00;99.90
17284;DHT22;8760;52.248;20.952;2024-02-04T11:30:51;6.00;99.90
17284;DHT22;8760;52.248;20.952;2024-02-04T11:33:21;6.00;99.90
17284;DHT22;8760;52.248;20.952;2024-02-04T11:35:58;5.90;99.90
17284;DHT22;8760;52.248;20.952;2024-02-04T11:38:35;5.80;99.90
17284;DHT22;8760;52.248;20.952;2024-02-04T11:41:02;5.80;99.90
17284;DHT22;8760;52.248;20.952;2024-02-04T11:43:32;5.80;99.90
17284;DHT22;8760;52.248;20.952;2024-02-04T11:45:59;5.80;99.90
17284;DHT22;8760;52.248;20.952;2024-02-04T11:48:31;5.80;99.90
17284;DHT22;8760;52.248;20.952;2024-02-04T11:50:59;5.80;99.90
17284;DHT22;8760;52.248;20.952;2024-02-04T11:53:26;5.80;99.90
17284;DHT22;8760;52.248;20.952;2024-02-04T11:55:57;5.80;99.90
17284;DHT22;8760;52.248;20.952;2024-02-04T11:58:25;5.70;99.90
17284;DHT22;8760;52.248;20.952;2024-02-04T12:00:52;5.70;99.90
17284;DHT22;8760;52.248;20.952;2024-02-04T12:03:30;5.70;99.90
17284;DHT22;8760;52.248;20.952;2024-02-04T12:05:57;5.70;99.90
17284;DHT22;8760;52.248;20.952;2024-02-04T12:08:24;5.80;99.90
17284;DHT22;8760;52.248;20.952;2024-02-04T12:10:52;5.80;99.90
17284;DHT22;8760;52.248;20.952;2024-02-04T12:13:19;5.90;99.90
17284;DHT22;8760;52.248;20.952;2024-02-04T12:15:47;5.90;99.90
17284;DHT22;8760;52.248;20.952;2024-02-04T12:18:14;5.90;99.90
17284;DHT22;8760;52.248;20.952;2024-02-04T12:20:47;5.90;99.90
17284;DHT22;8760;52.248;20.952;2024-02-04T12:23:15;5.90;99.90
17284;DHT22;8760;52.248;20.952;2024-02-04T12:25:42;6.00;99.90
17284;DHT22;8760;52.248;20.952;2024-02-04T12:28:09;6.00;99.90
17284;DHT22;8760;52.248;20.952;2024-02-04T12:30:36;6.00;99.90
17284;DHT22;8760;52.248;20.952;2024-02-04T12:33:04;6.00;99.90
17284;DHT22;8760;52.248;20.952;2024-02-04T12:35:32;6.10;99.90
17284;DHT22;8760;52.248;20.952;2024-02-04T12:38:00;6.10;99.90
17284;DHT22;8760;52.248;20.952;2024-02-04T12:40:29;6.10;99.90
17284;DHT22;8760;52.248;20.952;2024-02-04T12:42:57;6.10;99.90
17284;DHT22;8760;52.248;20.952;2024-02-04T12:45:25;6.10;99.90
17284;DHT22;8760;52.248;20.952;2024-02-04T12:47:53;6.10;99.90
17284;DHT22;8760;52.248;20.952;2024-02-04T12:50:20;6.10;99.90
17284;DHT22;8760;52.248;20.952;2024-02-04T12:52:48;6.20;99.90
17284;DHT22;8760;52.248;20.952;2024-02-04T12:55:26;6.20;99.90
17284;DHT22;8760;52.248;20.952;2024-02-04T12:58:01;6.20;99.90
17284;DHT22;8760;52.248;20.952;2024-02-04T13:00:29;6.20;99.90
17284;DHT22;8760;52.248;20.952;2024-02-04T13:02:57;6.20;99.90
17284;DHT22;8760;52.248;20.952;2024-02-04T13:05:24;6.30;99.90
17284;DHT22;8760;52.248;20.952;2024-02-04T13:07:53;6.30;99.90
17284;DHT22;8760;52.248;20.952;2024-02-04T13:10:21;6.30;99.90
17284;DHT22;8760;52.248;20.952;2024-02-04T13:12:59;6.20;99.90
17284;DHT22;8760;52.248;20.952;2024-02-04T13:15:27;6.20;99.90
17284;DHT22;8760;52.248;20.952;2024-02-04T13:17:54;6.20;99.90
17284;DHT22;8760;52.248;20.952;2024-02-04T13:20:21;6.20;99.90
17284;DHT22;8760;52.248;20.952;2024-02-04T13:22:48;6.20;99.90
17284;DHT22;8760;52.248;20.952;2024-02-04T13:25:15;6.20;99.90
17284;DHT22;8760;52.248;20.952;2024-02-04T13:27:42;6.10;99.90
17284;DHT22;8760;52.248;20.952;2024-02-04T13:30:10;6.10;99.90
17284;DHT22;8760;52.248;20.952;2024-02-04T13:32:39;6.10;99.90
17284;DHT22;8760;52.248;20.952;2024-02-04T13:35:06;6.10;99.90
17284;DHT22;8760;52.248;20.952;2024-02-04T13:37:34;6.10;99.90
17284;DHT22;8760;52.248;20.952;2024-02-04T13:40:03;6.10;99.90
17284;DHT22;8760;52.248;20.952;2024-02-04T13:42:31;6.20;99.90
17284;DHT22;8760;52.248;20.952;2024-02-04T13:44:58;6.20;99.90
17284;DHT22;8760;52.248;20.952;2024-02-04T13:47:27;6.10;99.90
17284;DHT22;8760;52.248;20.952;2024-02-04T13:49:54;6.20;99.90
17284;DHT22;8760;52.248;20.952;2024-02-04T13:52:21;6.10;99.90
17284;DHT22;8760;52.248;20.952;2024-02-04T13:54:48;6.20;99.90
17284;DHT22;8760;52.248;20.952;2024-02-04T13:57:15;6.20;99.90
17284;DHT22;8760;52.248;20.952;2024-02-04T13:59:42;6.20;99.90
17284;DHT22;8760;52.248;20.952;2024-02-04T14:02:09;6.20;99.90
17284;DHT22;8760;52.248;20.952;2024-02-04T14:04:37;6.20;99.90
17284;DHT22;8760;52.248;20.952;2024-02-04T14:07:04;6.30;99.90
17284;DHT22;8760;52.248;20.952;2024-02-04T14:09:31;6.30;99.90
17284;DHT22;8760;52.248;20.952;2024-02-04T14:11:58;6.30;99.90
17284;DHT22;8760;52.248;20.952;2024-02-04T14:14:25;6.30;99.90
17284;DHT22;8760;52.248;20.952;2024-02-04T14:16:52;6.30;99.90
17284;DHT22;8760;52.248;20.952;2024-02-04T14:19:19;6.30;99.90
17284;DHT22;8760;52.248;20.952;2024-02-04T14:21:47;6.30;99.90
17284;DHT22;8760;52.248;20.952;2024-02-04T14:24:14;6.30;99.90
17284;DHT22;8760;52.248;20.952;2024-02-04T14:26:41;6.30;99.90
17284;DHT22;8760;52.248;20.952;2024-02-04T14:29:08;6.30;99.90
17284;DHT22;8760;52.248;20.952;2024-02-04T14:31:35;6.40;99.90
17284;DHT22;8760;52.248;20.952;2024-02-04T14:34:02;6.40;99.90
17284;DHT22;8760;52.248;20.952;2024-02-04T14:36:29;6.40;99.90
17284;DHT22;8760;52.248;20.952;2024-02-04T14:38:58;6.40;99.90
17284;DHT22;8760;52.248;20.952;2024-02-04T14:41:25;6.50;99.90
17284;DHT22;8760;52.248;20.952;2024-02-04T14:43:52;6.40;99.90
17284;DHT22;8760;52.248;20.952;2024-02-04T14:46:19;6.40;99.90
17284;DHT22;8760;52.248;20.952;2024-02-04T14:48:46;6.50;99.90
17284;DHT22;8760;52.248;20.952;2024-02-04T14:51:13;6.40;99.90
17284;DHT22;8760;52.248;20.952;2024-02-04T14:53:39;6.40;99.90
17284;DHT22;8760;52.248;20.952;2024-02-04T14:56:08;6.50;99.90
17284;DHT22;8760;52.248;20.952;2024-02-04T14:58:35;6.50;99.90
17284;DHT22;8760;52.248;20.952;2024-02-04T15:01:03;6.50;99.90
17284;DHT22;8760;52.248;20.952;2024-02-04T15:03:30;6.50;99.90
17284;DHT22;8760;52.248;20.952;2024-02-04T15:05:57;6.50;99.90
17284;DHT22;8760;52.248;20.952;2024-02-04T15:08:24;6.50;99.90
17284;DHT22;8760;52.248;20.952;2024-02-04T15:10:50;6.50;99.90
17284;DHT22;8760;52.248;20.952;2024-02-04T15:13:19;6.50;99.90
17284;DHT22;8760;52.248;20.952;2024-02-04T15:15:46;6.50;99.90
17284;DHT22;8760;52.248;20.952;2024-02-04T15:18:14;6.50;99.90
17284;DHT22;8760;52.248;20.952;2024-02-04T15:20:41;6.50;99.90
17284;DHT22;8760;52.248;20.952;2024-02-04T15:23:09;6.50;99.90
17284;DHT22;8760;52.248;20.952;2024-02-04T15:25:36;6.50;99.90
17284;DHT22;8760;52.248;20.952;2024-02-04T15:28:04;6.50;99.90
17284;DHT22;8760;52.248;20.952;2024-02-04T15:30:33;6.50;99.90
17284;DHT22;8760;52.248;20.952;2024-02-04T15:33:01;6.50;99.90
17284;DHT22;8760;52.248;20.952;2024-02-04T15:35:28;6.50;99.90
17284;DHT22;8760;52.248;20.952;2024-02-04T15:37:55;6.50;99.90
17284;DHT22;8760;52.248;20.952;2024-02-04T15:40:24;6.50;99.90
17284;DHT22;8760;52.248;20.952;2024-02-04T15:42:50;6.50;99.90
17284;DHT22;8760;52.248;20.952;2024-02-04T15:45:17;6.50;99.90
17284;DHT22;8760;52.248;20.952;2024-02-04T15:47:50;6.50;99.90
17284;DHT22;8760;52.248;20.952;2024-02-04T15:50:18;6.50;99.90
17284;DHT22;8760;52.248;20.952;2024-02-04T15:52:46;6.50;99.90
17284;DHT22;8760;52.248;20.952;2024-02-04T15:55:14;6.50;99.90